createdAt,value
2023-02-04T00:01:58.615Z,2.10
2023-02-04T00:04:25.067Z,1.90
2023-02-04T00:06:51.501Z,1.50
2023-02-04T00:09:18.025Z,1.90
2023-02-04T00:11:45.586Z,1.63
2023-02-04T00:14:12.041Z,1.95
2023-02-04T00:16:38.596Z,1.63
2023-02-04T00:19:05.126Z,2.55
2023-02-04T00:21:31.572Z,2.38
2023-02-04T00:23:58.004Z,1.23
2023-02-04T00:26:25.099Z,2.40
2023-02-04T00:28:51.570Z,2.17
2023-02-04T00:31:18.102Z,1.63
2023-02-04T00:33:44.600Z,1.70
2023-02-04T00:36:11.100Z,2.83
2023-02-04T00:38:37.641Z,2.08
2023-02-04T00:41:04.228Z,2.00
2023-02-04T00:43:30.927Z,2.42
2023-02-04T00:45:57.440Z,2.30
2023-02-04T00:48:26.951Z,1.77
2023-02-04T00:50:54.088Z,2.10
2023-02-04T00:53:20.677Z,2.67
2023-02-04T00:55:47.178Z,2.55
2023-02-04T00:58:13.641Z,1.75
2023-02-04T01:00:40.200Z,2.10
2023-02-04T01:03:06.755Z,1.67
2023-02-04T01:05:33.272Z,2.57
2023-02-04T01:07:59.653Z,1.52
2023-02-04T01:10:26.768Z,2.03
2023-02-04T01:12:53.352Z,1.85
2023-02-04T01:15:19.869Z,1.80
2023-02-04T01:17:46.272Z,1.80
2023-02-04T01:20:12.753Z,2.08
2023-02-04T01:22:39.242Z,2.00
2023-02-04T01:25:06.208Z,1.42
2023-02-04T01:27:32.683Z,2.22
2023-02-04T01:29:59.167Z,3.70
2023-02-04T01:32:25.655Z,2.38
2023-02-04T01:34:52.097Z,2.08
2023-02-04T01:37:18.859Z,1.60
2023-02-04T01:39:45.306Z,2.20
2023-02-04T01:42:11.815Z,2.87
2023-02-04T01:44:39.396Z,1.52
2023-02-04T01:47:06.303Z,2.40
2023-02-04T01:49:32.986Z,1.95
2023-02-04T01:51:59.692Z,1.80
2023-02-04T01:54:27.338Z,2.23
2023-02-04T01:56:55.244Z,3.35
2023-02-04T01:59:22.972Z,2.33
2023-02-04T02:01:52.373Z,1.75
2023-02-04T02:04:24.349Z,1.58
2023-02-04T02:06:55.435Z,1.63
2023-02-04T02:09:22.023Z,2.50
2023-02-04T02:11:48.656Z,2.28
2023-02-04T02:14:15.400Z,1.77
2023-02-04T02:16:42.074Z,1.90
2023-02-04T02:19:12.596Z,2.23
2023-02-04T02:21:53.315Z,1.83
2023-02-04T02:24:32.082Z,2.22
2023-02-04T02:27:01.615Z,1.95
2023-02-04T02:29:28.294Z,2.45
2023-02-04T02:35:05.334Z,2.72
2023-02-04T02:37:32.359Z,1.80
2023-02-04T02:39:58.921Z,2.58
2023-02-04T02:42:25.781Z,2.53
2023-02-04T02:44:53.851Z,1.97
2023-02-04T02:47:22.529Z,2.72
2023-02-04T02:49:51.388Z,3.65
2023-02-04T02:52:18.218Z,2.35
2023-02-04T02:54:45.077Z,3.28
2023-02-04T02:57:19.003Z,2.13
2023-02-04T02:59:45.547Z,1.73
2023-02-04T03:02:16.296Z,2.08
2023-02-04T03:04:47.405Z,2.50
2023-02-04T03:07:15.022Z,1.90
2023-02-04T03:09:41.525Z,2.93
2023-02-04T03:12:08.498Z,3.28
2023-02-04T03:14:35.682Z,2.80
2023-02-04T03:17:05.193Z,2.72
2023-02-04T03:19:32.250Z,2.65
2023-02-04T03:22:00.177Z,3.23
2023-02-04T03:24:26.899Z,1.95
2023-02-04T03:26:53.412Z,2.05
2023-02-04T03:29:20.056Z,2.47
2023-02-04T03:31:46.776Z,2.33
2023-02-04T03:34:13.260Z,3.60
2023-02-04T03:36:39.732Z,1.83
2023-02-04T03:39:06.133Z,2.28
2023-02-04T03:41:32.576Z,2.55
2023-02-04T03:43:59.075Z,1.90
2023-02-04T03:46:25.987Z,2.20
2023-02-04T03:48:52.537Z,2.83
2023-02-04T03:51:18.976Z,3.05
2023-02-04T03:53:45.386Z,2.25
2023-02-04T03:56:11.783Z,2.80
2023-02-04T03:58:38.219Z,2.33
2023-02-04T04:01:04.770Z,1.80
2023-02-04T04:03:31.178Z,3.25
2023-02-04T04:05:57.641Z,2.08
2023-02-04T04:08:24.087Z,2.10
2023-02-04T04:10:50.507Z,2.17
2023-02-04T04:13:17.007Z,2.28
2023-02-04T04:15:43.492Z,2.80
2023-02-04T04:18:09.937Z,2.33
2023-02-04T04:20:36.387Z,2.85
2023-02-04T04:23:02.825Z,2.43
2023-02-04T04:25:29.255Z,2.40
2023-02-04T04:27:55.691Z,3.17
2023-02-04T04:30:22.131Z,2.67
2023-02-04T04:32:48.693Z,2.00
2023-02-04T04:35:15.247Z,2.33
2023-02-04T04:37:41.664Z,2.60
2023-02-04T04:40:11.576Z,2.38
2023-02-04T04:42:37.973Z,2.15
2023-02-04T04:45:08.394Z,3.00
2023-02-04T04:47:34.809Z,2.03
2023-02-04T04:50:01.308Z,2.58
2023-02-04T04:52:27.774Z,2.15
2023-02-04T04:54:54.160Z,2.38
2023-02-04T04:57:21.381Z,2.70
2023-02-04T04:59:47.891Z,2.03
2023-02-04T05:02:14.470Z,1.90
2023-02-04T05:04:40.941Z,1.98
2023-02-04T05:07:07.354Z,2.13
2023-02-04T05:09:33.774Z,3.13
2023-02-04T05:12:00.307Z,2.63
2023-02-04T05:14:26.824Z,2.53
2023-02-04T05:16:53.246Z,2.67
2023-02-04T05:19:19.696Z,2.83
2023-02-04T05:21:46.142Z,2.67
2023-02-04T05:24:12.636Z,2.37
2023-02-04T05:26:39.221Z,3.38
2023-02-04T05:29:06.056Z,2.30
2023-02-04T05:31:33.123Z,1.70
2023-02-04T05:33:59.611Z,1.90
2023-02-04T05:36:26.086Z,2.00
2023-02-04T05:38:52.595Z,1.90
2023-02-04T05:41:19.187Z,1.88
2023-02-04T05:43:45.668Z,3.03
2023-02-04T05:46:12.149Z,2.47
2023-02-04T05:48:40.230Z,2.33
2023-02-04T05:51:06.842Z,1.83
2023-02-04T05:53:33.271Z,1.63
2023-02-04T05:55:59.695Z,2.55
2023-02-04T05:58:33.163Z,2.10
2023-02-04T06:01:01.459Z,2.07
2023-02-04T06:03:29.290Z,2.05
2023-02-04T06:05:56.144Z,1.98
2023-02-04T06:08:23.497Z,2.70
2023-02-04T06:10:49.958Z,1.83
2023-02-04T06:13:16.968Z,2.70
2023-02-04T06:15:43.496Z,2.45
2023-02-04T06:18:10.368Z,3.20
2023-02-04T06:20:36.778Z,2.15
2023-02-04T06:23:03.217Z,2.47
2023-02-04T06:25:29.667Z,1.80
2023-02-04T06:27:56.075Z,2.28
2023-02-04T06:30:22.539Z,2.40
2023-02-04T06:32:49.001Z,2.33
2023-02-04T06:35:16.583Z,8.02
2023-02-04T06:37:43.676Z,6.43
2023-02-04T06:40:11.351Z,3.13
2023-02-04T06:42:37.786Z,3.70
2023-02-04T06:45:05.422Z,4.40
2023-02-04T06:47:31.877Z,3.50
2023-02-04T06:49:58.378Z,3.63
2023-02-04T06:52:24.875Z,3.17
2023-02-04T06:54:51.319Z,2.92
2023-02-04T06:57:17.723Z,2.80
2023-02-04T06:59:44.163Z,2.33
2023-02-04T07:02:12.385Z,2.67
2023-02-04T07:04:38.989Z,2.22
2023-02-04T07:07:05.458Z,3.03
2023-02-04T07:09:31.950Z,2.35
2023-02-04T07:11:58.700Z,2.22
2023-02-04T07:14:25.133Z,2.37
2023-02-04T07:16:51.571Z,2.53
2023-02-04T07:19:19.631Z,2.40
2023-02-04T07:21:47.270Z,2.28
2023-02-04T07:24:13.726Z,2.25
2023-02-04T07:26:40.147Z,1.73
2023-02-04T07:29:08.556Z,2.28
2023-02-04T07:31:41.239Z,2.42
2023-02-04T07:34:07.820Z,2.95
2023-02-04T07:36:34.257Z,2.97
2023-02-04T07:39:00.997Z,2.23
2023-02-04T07:41:27.484Z,3.42
2023-02-04T07:43:53.976Z,4.10
2023-02-04T07:46:20.586Z,2.33
2023-02-04T07:48:47.047Z,3.08
2023-02-04T07:51:13.480Z,2.70
2023-02-04T07:53:39.929Z,1.85
2023-02-04T07:56:06.568Z,2.35
2023-02-04T07:58:33.134Z,2.88
2023-02-04T08:00:59.671Z,3.10
2023-02-04T08:03:26.073Z,3.10
2023-02-04T08:05:52.628Z,2.40
2023-02-04T08:08:19.514Z,2.95
2023-02-04T08:10:46.325Z,3.33
2023-02-04T08:13:13.143Z,2.58
2023-02-04T08:15:39.744Z,3.50
2023-02-04T08:18:06.739Z,2.63
2023-02-04T08:20:33.727Z,3.35
2023-02-04T08:23:00.958Z,4.10
2023-02-04T08:25:28.996Z,3.28
2023-02-04T08:27:55.542Z,3.87
2023-02-04T08:30:22.153Z,3.08
2023-02-04T08:32:48.629Z,3.72
2023-02-04T08:35:15.184Z,3.03
2023-02-04T08:37:41.763Z,2.80
2023-02-04T08:40:08.875Z,3.10
2023-02-04T08:42:35.370Z,3.00
2023-02-04T08:45:01.905Z,3.33
2023-02-04T08:47:28.411Z,3.75
2023-02-04T08:49:54.804Z,2.60
2023-02-04T08:52:21.234Z,4.13
2023-02-04T08:54:47.657Z,3.13
2023-02-04T08:57:14.048Z,3.50
2023-02-04T08:59:40.580Z,3.25
2023-02-04T09:02:07.150Z,3.38
2023-02-04T09:04:33.839Z,5.00
2023-02-04T09:07:00.593Z,3.10
2023-02-04T09:09:27.019Z,3.58
2023-02-04T09:11:53.553Z,3.58
2023-02-04T09:14:19.972Z,4.03
2023-02-04T09:16:46.482Z,3.63
2023-02-04T09:19:16.254Z,3.38
2023-02-04T09:21:42.812Z,3.58
2023-02-04T09:24:09.314Z,3.10
2023-02-04T09:26:35.708Z,3.95
2023-02-04T09:29:02.096Z,3.80
2023-02-04T09:31:28.667Z,3.60
2023-02-04T09:33:55.171Z,3.00
2023-02-04T09:36:21.641Z,3.42
2023-02-04T09:38:48.140Z,3.13
2023-02-04T09:41:14.984Z,3.87
2023-02-04T09:43:44.977Z,3.97
2023-02-04T09:46:23.873Z,4.10
2023-02-04T09:48:51.218Z,3.83
2023-02-04T09:51:22.365Z,4.05
2023-02-04T09:53:50.060Z,2.53
2023-02-04T09:56:17.199Z,3.22
2023-02-04T09:58:44.139Z,4.05
2023-02-04T10:01:19.311Z,4.97
2023-02-04T10:03:48.198Z,3.95
2023-02-04T10:06:20.519Z,3.30
2023-02-04T10:08:50.250Z,2.83
2023-02-04T10:11:19.806Z,5.30
2023-02-04T10:13:51.654Z,5.97
2023-02-04T10:16:29.947Z,4.38
2023-02-04T10:19:04.988Z,3.27
2023-02-04T10:21:33.504Z,3.80
2023-02-04T10:24:02.602Z,2.78
2023-02-04T10:26:31.233Z,3.38
2023-02-04T10:29:03.152Z,4.20
2023-02-04T10:31:41.383Z,2.83
2023-02-04T10:34:14.909Z,2.58
2023-02-04T10:36:45.234Z,3.20
2023-02-04T10:39:17.920Z,2.95
2023-02-04T10:41:47.847Z,2.88
2023-02-04T10:44:18.601Z,11.03
2023-02-04T10:46:45.265Z,4.68
2023-02-04T10:49:23.230Z,2.50
2023-02-04T10:51:52.643Z,2.90
2023-02-04T10:54:30.792Z,3.15
2023-02-04T10:57:17.180Z,2.83
2023-02-04T10:59:46.158Z,2.80
2023-02-04T11:02:33.785Z,3.33
2023-02-04T11:05:01.559Z,2.53
2023-02-04T11:07:29.082Z,2.67
2023-02-04T11:09:55.639Z,2.60
2023-02-04T11:12:24.760Z,2.58
2023-02-04T11:14:58.166Z,2.38
2023-02-04T11:17:35.219Z,3.40
2023-02-04T11:20:14.865Z,2.28
2023-02-04T11:22:44.552Z,2.87
2023-02-04T11:25:34.529Z,3.53
2023-02-04T11:28:01.533Z,2.65
2023-02-04T11:30:36.132Z,2.80
2023-02-04T11:33:05.035Z,2.00
2023-02-04T11:35:32.235Z,1.77
2023-02-04T11:37:59.519Z,2.30
2023-02-04T11:40:27.971Z,2.65
2023-02-04T11:43:03.709Z,2.38
2023-02-04T11:45:34.110Z,2.85
2023-02-04T11:48:20.468Z,2.17
2023-02-04T11:51:03.676Z,2.85
2023-02-04T11:53:31.970Z,2.55
2023-02-04T11:55:58.764Z,2.75
2023-02-04T11:58:26.277Z,2.70
2023-02-04T12:00:53.521Z,3.00
2023-02-04T12:03:30.623Z,2.13
2023-02-04T12:05:58.512Z,2.17
2023-02-04T12:08:33.094Z,2.92
2023-02-04T12:11:11.187Z,2.88
2023-02-04T12:13:53.737Z,2.10
2023-02-04T12:16:20.710Z,1.77
2023-02-04T12:18:47.429Z,1.88
2023-02-04T12:21:16.803Z,2.10
2023-02-04T12:23:43.278Z,1.92
2023-02-04T12:26:10.145Z,2.20
2023-02-04T12:28:36.630Z,2.00
2023-02-04T12:31:03.449Z,2.60
2023-02-04T12:33:30.180Z,2.00
2023-02-04T12:35:56.626Z,1.85
2023-02-04T12:38:23.181Z,2.50
2023-02-04T12:40:49.631Z,2.03
2023-02-04T12:43:16.025Z,1.65
2023-02-04T12:45:45.763Z,2.00
2023-02-04T12:48:12.817Z,1.60
2023-02-04T12:50:39.364Z,2.13
2023-02-04T12:53:06.457Z,1.42
2023-02-04T12:55:33.686Z,1.55
2023-02-04T12:58:00.397Z,1.70
2023-02-04T13:00:27.658Z,2.15
2023-02-04T13:02:59.145Z,2.50
2023-02-04T13:05:26.657Z,2.42
2023-02-04T13:07:53.505Z,2.35
2023-02-04T13:10:21.795Z,5.70
2023-02-04T13:12:48.469Z,3.58
2023-02-04T13:15:14.931Z,2.70
2023-02-04T13:17:41.671Z,2.05
2023-02-04T13:20:09.464Z,2.95
2023-02-04T13:22:35.936Z,2.75
2023-02-04T13:25:04.077Z,2.67
2023-02-04T13:27:31.939Z,2.00
2023-02-04T13:29:58.479Z,2.10
2023-02-04T13:32:24.883Z,2.42
2023-02-04T13:34:51.350Z,2.20
2023-02-04T13:37:17.735Z,2.28
2023-02-04T13:39:44.226Z,2.77
2023-02-04T13:42:10.659Z,3.53
2023-02-04T13:44:37.080Z,2.83
2023-02-04T13:47:03.550Z,1.75
2023-02-04T13:49:30.107Z,2.50
2023-02-04T13:51:56.554Z,2.30
2023-02-04T13:54:22.990Z,2.10
2023-02-04T13:56:49.480Z,2.75
2023-02-04T13:59:15.900Z,1.77
2023-02-04T14:01:42.710Z,2.42
2023-02-04T14:04:09.147Z,2.40
2023-02-04T14:06:38.298Z,2.63
2023-02-04T14:09:05.184Z,2.30
2023-02-04T14:11:31.671Z,2.15
2023-02-04T14:13:58.206Z,2.30
2023-02-04T14:16:24.813Z,3.07
2023-02-04T14:18:51.288Z,2.47
2023-02-04T14:21:18.171Z,2.22
2023-02-04T14:23:44.606Z,2.28
2023-02-04T14:26:11.116Z,2.67
2023-02-04T14:28:37.613Z,1.60
2023-02-04T14:31:04.206Z,1.80
2023-02-04T14:33:30.692Z,2.45
2023-02-04T14:35:57.080Z,2.20
2023-02-04T14:38:23.558Z,2.47
2023-02-04T14:40:50.006Z,2.03
2023-02-04T14:43:16.436Z,2.13
2023-02-04T14:45:43.211Z,3.17
2023-02-04T14:48:09.780Z,1.70
2023-02-04T14:50:36.272Z,2.28
2023-02-04T14:53:02.802Z,2.40
2023-02-04T14:55:29.560Z,2.90
2023-02-04T14:57:56.100Z,2.63
2023-02-04T15:00:22.800Z,3.00
2023-02-04T15:02:49.381Z,3.50
2023-02-04T15:05:16.142Z,2.23
2023-02-04T15:07:42.648Z,3.05
2023-02-04T15:10:13.745Z,2.53
2023-02-04T15:12:41.383Z,3.08
2023-02-04T15:15:08.296Z,2.53
2023-02-04T15:17:34.880Z,2.63
2023-02-04T15:20:04.117Z,3.05
2023-02-04T15:22:30.633Z,2.65
2023-02-04T15:24:57.121Z,2.13
2023-02-04T15:27:23.542Z,3.15
2023-02-04T15:29:49.956Z,4.10
2023-02-04T15:32:16.435Z,3.28
2023-02-04T15:34:43.186Z,2.92
2023-02-04T15:37:10.913Z,2.55
2023-02-04T15:39:38.864Z,3.10
2023-02-04T15:42:05.308Z,2.83
2023-02-04T15:44:32.055Z,3.33
2023-02-04T15:46:58.530Z,2.58
2023-02-04T15:49:25.045Z,2.75
2023-02-04T15:51:51.506Z,2.20
2023-02-04T15:54:18.058Z,2.77
2023-02-04T15:56:44.649Z,3.22
2023-02-04T15:59:11.109Z,2.67
2023-02-04T16:01:37.590Z,4.15
2023-02-04T16:04:04.188Z,3.83
2023-02-04T16:06:30.630Z,3.47
2023-02-04T16:08:57.062Z,2.90
2023-02-04T16:11:23.599Z,3.03
2023-02-04T16:13:50.141Z,2.92
2023-02-04T16:16:16.638Z,3.08
2023-02-04T16:18:43.108Z,3.23
2023-02-04T16:21:09.577Z,3.15
2023-02-04T16:23:36.182Z,3.30
2023-02-04T16:26:02.653Z,2.67
2023-02-04T16:28:29.190Z,3.45
2023-02-04T16:30:55.689Z,3.10
2023-02-04T16:33:22.258Z,2.92
2023-02-04T16:36:11.670Z,3.63
2023-02-04T16:38:39.554Z,10.35
2023-02-04T16:41:10.357Z,22.02
2023-02-04T16:43:37.211Z,18.33
2023-02-04T16:46:04.262Z,14.75
2023-02-04T16:48:30.834Z,9.70
2023-02-04T16:50:57.417Z,6.72
2023-02-04T16:53:24.014Z,3.45
2023-02-04T16:55:50.440Z,2.57
2023-02-04T16:58:17.144Z,2.83
2023-02-04T17:00:44.159Z,2.45
2023-02-04T17:03:14.468Z,2.38
2023-02-04T17:05:41.906Z,3.78
2023-02-04T17:08:08.902Z,3.60
2023-02-04T17:10:54.327Z,3.20
2023-02-04T17:13:20.900Z,2.65
2023-02-04T17:15:47.330Z,3.50
2023-02-04T17:18:13.950Z,2.70
2023-02-04T17:20:40.650Z,3.40
2023-02-04T17:23:07.086Z,3.08
2023-02-04T17:25:33.777Z,7.45
2023-02-04T17:28:00.669Z,3.70
2023-02-04T17:30:27.401Z,2.60
2023-02-04T17:32:53.864Z,3.03
2023-02-04T17:35:20.308Z,4.70
2023-02-04T17:37:46.753Z,5.03
2023-02-04T17:40:13.211Z,4.88
2023-02-04T17:42:40.786Z,5.88
2023-02-04T17:45:10.419Z,7.37
2023-02-04T17:47:40.926Z,7.65
2023-02-04T17:50:10.024Z,5.28
2023-02-04T17:52:37.823Z,5.95
2023-02-04T17:55:28.989Z,5.38
2023-02-04T17:57:58.244Z,4.30
2023-02-04T18:00:28.084Z,4.20
2023-02-04T18:02:55.284Z,4.68
2023-02-04T18:05:24.538Z,4.90
2023-02-04T18:08:13.719Z,5.65
2023-02-04T18:10:45.304Z,5.43
2023-02-04T18:13:19.742Z,5.15
2023-02-04T18:15:58.386Z,5.65
2023-02-04T18:18:26.958Z,6.10
2023-02-04T18:21:19.484Z,4.97
2023-02-04T18:23:46.370Z,5.23
2023-02-04T18:26:18.897Z,5.32
2023-02-04T18:28:47.652Z,4.80
2023-02-04T18:31:32.623Z,8.75
2023-02-04T18:34:03.248Z,5.30
2023-02-04T18:36:33.253Z,5.33
2023-02-04T18:39:01.221Z,4.88
2023-02-04T18:41:32.826Z,4.70
2023-02-04T18:44:21.891Z,5.70
2023-02-04T18:46:48.620Z,6.38
2023-02-04T18:49:29.810Z,5.97
2023-02-04T18:51:58.851Z,4.68
2023-02-04T18:54:29.026Z,5.30
2023-02-04T18:57:17.493Z,5.13
2023-02-04T18:59:44.055Z,5.57
2023-02-04T19:02:36.312Z,5.17
2023-02-04T19:05:26.274Z,5.47
2023-02-04T19:08:16.860Z,5.57
2023-02-04T19:10:43.635Z,8.00
2023-02-04T19:13:39.978Z,8.50
2023-02-04T19:16:25.912Z,9.47
2023-02-04T19:18:56.701Z,11.10
2023-02-04T19:21:31.283Z,12.27
2023-02-04T19:24:19.613Z,13.52
2023-02-04T19:26:53.809Z,9.98
2023-02-04T19:29:24.859Z,10.73
2023-02-04T19:31:55.945Z,10.25
2023-02-04T19:34:28.904Z,9.20
2023-02-04T19:36:55.500Z,10.73
2023-02-04T19:39:39.415Z,9.85
2023-02-04T19:42:24.723Z,9.00
2023-02-04T19:44:51.890Z,10.98
2023-02-04T19:47:26.617Z,10.10
2023-02-04T19:50:13.433Z,9.20
2023-02-04T19:53:09.166Z,8.52
2023-02-04T19:55:46.151Z,8.43
2023-02-04T19:58:28.574Z,8.07
2023-02-04T20:01:11.156Z,7.40
2023-02-04T20:03:42.649Z,8.52
2023-02-04T20:06:30.248Z,8.07
2023-02-04T20:09:01.289Z,7.77
2023-02-04T20:11:38.206Z,8.13
2023-02-04T20:14:14.007Z,8.88
2023-02-04T20:16:46.933Z,10.10
2023-02-04T20:19:31.575Z,8.77
2023-02-04T20:22:23.504Z,9.77
2023-02-04T20:25:26.512Z,8.65
2023-02-04T20:27:57.022Z,8.68
2023-02-04T20:30:27.820Z,8.20
2023-02-04T20:32:57.006Z,7.97
2023-02-04T20:35:23.466Z,9.17
2023-02-04T20:37:54.131Z,9.30
2023-02-04T20:40:28.526Z,10.32
2023-02-04T20:42:58.379Z,8.85
2023-02-04T20:45:49.114Z,9.68
2023-02-04T20:48:15.539Z,8.80
2023-02-04T20:50:49.010Z,8.30
2023-02-04T20:53:41.721Z,7.13
2023-02-04T20:56:22.353Z,6.60
2023-02-04T20:58:49.891Z,7.20
2023-02-04T21:01:22.157Z,7.53
2023-02-04T21:03:51.168Z,8.55
2023-02-04T21:06:23.925Z,8.23
2023-02-04T21:08:52.521Z,8.88
2023-02-04T21:11:19.121Z,9.70
2023-02-04T21:13:45.948Z,10.60
2023-02-04T21:16:12.590Z,10.75
2023-02-04T21:18:39.664Z,10.27
2023-02-04T21:21:08.215Z,11.15
2023-02-04T21:23:36.294Z,11.00
2023-02-04T21:26:02.891Z,10.07
2023-02-04T21:28:30.476Z,8.93
2023-02-04T21:30:56.977Z,9.88
2023-02-04T21:33:23.525Z,9.23
2023-02-04T21:35:49.974Z,9.38
2023-02-04T21:38:16.450Z,9.77
2023-02-04T21:40:42.991Z,9.30
2023-02-04T21:43:09.430Z,9.63
2023-02-04T21:45:37.892Z,9.00
2023-02-04T21:48:05.236Z,10.18
2023-02-04T21:50:32.921Z,9.07
2023-02-04T21:52:59.516Z,10.35
2023-02-04T21:55:26.153Z,8.77
2023-02-04T21:57:53.252Z,10.20
2023-02-04T22:00:23.725Z,9.07
2023-02-04T22:02:52.155Z,10.10
2023-02-04T22:05:20.018Z,8.93
2023-02-04T22:07:46.914Z,9.25
2023-02-04T22:10:22.408Z,9.68
2023-02-04T22:12:48.910Z,9.02
2023-02-04T22:15:16.693Z,9.73
2023-02-04T22:17:44.105Z,9.20
2023-02-04T22:20:12.540Z,9.10
2023-02-04T22:22:39.004Z,8.57
2023-02-04T22:25:05.699Z,7.85
2023-02-04T22:27:32.078Z,11.37
2023-02-04T22:30:02.366Z,10.10
2023-02-04T22:32:29.960Z,14.32
2023-02-04T22:34:56.452Z,9.95
2023-02-04T22:37:22.996Z,10.43
2023-02-04T22:39:49.551Z,9.47
2023-02-04T22:42:15.997Z,8.77
2023-02-04T22:44:42.393Z,9.20
2023-02-04T22:47:08.894Z,8.38
2023-02-04T22:49:35.861Z,8.70
2023-02-04T22:52:03.349Z,8.97
2023-02-04T22:54:30.077Z,8.18
2023-02-04T22:56:59.554Z,8.95
2023-02-04T22:59:27.636Z,8.15
2023-02-04T23:01:55.162Z,8.05
2023-02-04T23:04:22.219Z,7.57
2023-02-04T23:06:49.512Z,8.55
2023-02-04T23:09:16.300Z,7.45
2023-02-04T23:11:43.289Z,8.45
2023-02-04T23:14:09.957Z,7.47
2023-02-04T23:16:36.479Z,9.43
2023-02-04T23:19:03.722Z,8.45
2023-02-04T23:21:30.506Z,8.65
2023-02-04T23:23:57.108Z,9.55
2023-02-04T23:26:23.615Z,8.60
2023-02-04T23:28:50.007Z,8.50
2023-02-04T23:31:16.484Z,8.40
2023-02-04T23:33:42.939Z,8.48
2023-02-04T23:36:09.758Z,9.35
2023-02-04T23:38:36.267Z,8.35
2023-02-04T23:41:02.746Z,8.63
2023-02-04T23:43:29.242Z,8.18
2023-02-04T23:45:57.250Z,9.05
2023-02-04T23:48:24.434Z,8.77
2023-02-04T23:50:51.459Z,8.65
2023-02-04T23:53:19.350Z,8.93
2023-02-04T23:55:46.171Z,9.43
2023-02-04T23:58:12.693Z,9.00
